sensor_id;sensor_type;location;lat;lon;timestamp;P1;durP1;ratioP1;P2;durP2;ratioP2
11522;SDS011;70090;43.208;27.904;2023-05-21T00:00:16;10.30;;;5.27;;
11522;SDS011;70090;43.208;27.904;2023-05-21T00:02:44;13.37;;;5.60;;
11522;SDS011;70090;43.208;27.904;2023-05-21T00:05:11;6.73;;;4.50;;
11522;SDS011;70090;43.208;27.904;2023-05-21T00:07:39;8.77;;;4.80;;
11522;SDS011;70090;43.208;27.904;2023-05-21T00:10:06;6.30;;;4.30;;
11522;SDS011;70090;43.208;27.904;2023-05-21T00:12:33;11.00;;;4.90;;
11522;SDS011;70090;43.208;27.904;2023-05-21T00:15:02;7.40;;;4.70;;
11522;SDS011;70090;43.208;27.904;2023-05-21T00:17:29;8.87;;;4.80;;
11522;SDS011;70090;43.208;27.904;2023-05-21T00:19:56;6.93;;;4.43;;
11522;SDS011;70090;43.208;27.904;2023-05-21T00:22:24;5.23;;;4.40;;
11522;SDS011;70090;43.208;27.904;2023-05-21T00:24:50;9.57;;;4.90;;
11522;SDS011;70090;43.208;27.904;2023-05-21T00:27:17;5.60;;;4.37;;
11522;SDS011;70090;43.208;27.904;2023-05-21T00:29:44;6.87;;;4.83;;
11522;SDS011;70090;43.208;27.904;2023-05-21T00:32:13;7.37;;;4.83;;
11522;SDS011;70090;43.208;27.904;2023-05-21T00:34:39;9.03;;;5.20;;
11522;SDS011;70090;43.208;27.904;2023-05-21T00:37:06;10.27;;;4.90;;
11522;SDS011;70090;43.208;27.904;2023-05-21T00:39:34;6.80;;;4.57;;
11522;SDS011;70090;43.208;27.904;2023-05-21T00:42:01;7.03;;;4.80;;
11522;SDS011;70090;43.208;27.904;2023-05-21T00:44:29;9.53;;;5.20;;
11522;SDS011;70090;43.208;27.904;2023-05-21T00:46:58;6.97;;;5.00;;
11522;SDS011;70090;43.208;27.904;2023-05-21T00:49:27;6.07;;;4.80;;
11522;SDS011;70090;43.208;27.904;2023-05-21T00:51:55;8.33;;;4.97;;
11522;SDS011;70090;43.208;27.904;2023-05-21T00:54:25;8.93;;;5.00;;
11522;SDS011;70090;43.208;27.904;2023-05-21T00:56:53;7.07;;;4.70;;
11522;SDS011;70090;43.208;27.904;2023-05-21T00:59:20;10.10;;;4.73;;
11522;SDS011;70090;43.208;27.904;2023-05-21T01:01:48;11.80;;;5.00;;
11522;SDS011;70090;43.208;27.904;2023-05-21T01:04:20;9.03;;;4.50;;
11522;SDS011;70090;43.208;27.904;2023-05-21T01:06:49;9.73;;;5.03;;
11522;SDS011;70090;43.208;27.904;2023-05-21T01:09:17;7.17;;;4.43;;
11522;SDS011;70090;43.208;27.904;2023-05-21T01:11:45;7.70;;;4.53;;
11522;SDS011;70090;43.208;27.904;2023-05-21T01:14:15;6.60;;;4.53;;
11522;SDS011;70090;43.208;27.904;2023-05-21T01:16:43;9.03;;;4.90;;
11522;SDS011;70090;43.208;27.904;2023-05-21T01:19:13;8.27;;;4.90;;
11522;SDS011;70090;43.208;27.904;2023-05-21T01:21:44;6.80;;;4.70;;
11522;SDS011;70090;43.208;27.904;2023-05-21T01:24:13;8.73;;;4.63;;
11522;SDS011;70090;43.208;27.904;2023-05-21T01:26:40;9.27;;;4.70;;
11522;SDS011;70090;43.208;27.904;2023-05-21T01:29:08;7.13;;;4.77;;
11522;SDS011;70090;43.208;27.904;2023-05-21T01:31:40;6.77;;;4.80;;
11522;SDS011;70090;43.208;27.904;2023-05-21T01:34:13;11.67;;;5.50;;
11522;SDS011;70090;43.208;27.904;2023-05-21T01:36:48;8.37;;;5.03;;
11522;SDS011;70090;43.208;27.904;2023-05-21T01:39:22;10.57;;;5.10;;
11522;SDS011;70090;43.208;27.904;2023-05-21T01:41:55;9.13;;;4.83;;
11522;SDS011;70090;43.208;27.904;2023-05-21T01:44:22;8.17;;;5.00;;
11522;SDS011;70090;43.208;27.904;2023-05-21T01:46:51;7.53;;;4.70;;
11522;SDS011;70090;43.208;27.904;2023-05-21T01:49:19;8.73;;;5.30;;
11522;SDS011;70090;43.208;27.904;2023-05-21T01:51:48;9.73;;;4.83;;
11522;SDS011;70090;43.208;27.904;2023-05-21T01:54:15;5.90;;;4.73;;
11522;SDS011;70090;43.208;27.904;2023-05-21T01:56:43;9.30;;;4.90;;
11522;SDS011;70090;43.208;27.904;2023-05-21T01:59:11;6.13;;;4.70;;
11522;SDS011;70090;43.208;27.904;2023-05-21T02:01:38;6.53;;;5.10;;
11522;SDS011;70090;43.208;27.904;2023-05-21T02:04:06;7.67;;;4.80;;
11522;SDS011;70090;43.208;27.904;2023-05-21T02:06:32;7.90;;;4.90;;
11522;SDS011;70090;43.208;27.904;2023-05-21T02:09:00;10.67;;;4.87;;
11522;SDS011;70090;43.208;27.904;2023-05-21T02:11:27;7.27;;;4.90;;
11522;SDS011;70090;43.208;27.904;2023-05-21T02:13:56;10.93;;;5.20;;
11522;SDS011;70090;43.208;27.904;2023-05-21T02:16:23;7.87;;;4.87;;
11522;SDS011;70090;43.208;27.904;2023-05-21T02:18:50;9.63;;;4.83;;
11522;SDS011;70090;43.208;27.904;2023-05-21T02:21:21;8.37;;;4.40;;
11522;SDS011;70090;43.208;27.904;2023-05-21T02:23:48;7.70;;;4.83;;
11522;SDS011;70090;43.208;27.904;2023-05-21T02:26:15;7.80;;;4.80;;
11522;SDS011;70090;43.208;27.904;2023-05-21T02:28:42;6.93;;;4.70;;
11522;SDS011;70090;43.208;27.904;2023-05-21T02:31:10;7.17;;;4.80;;
11522;SDS011;70090;43.208;27.904;2023-05-21T02:33:38;5.37;;;4.37;;
11522;SDS011;70090;43.208;27.904;2023-05-21T02:36:06;6.50;;;4.73;;
11522;SDS011;70090;43.208;27.904;2023-05-21T02:38:37;8.20;;;4.80;;
11522;SDS011;70090;43.208;27.904;2023-05-21T02:41:04;7.00;;;4.70;;
11522;SDS011;70090;43.208;27.904;2023-05-21T02:43:31;6.80;;;4.83;;
11522;SDS011;70090;43.208;27.904;2023-05-21T02:45:58;6.77;;;4.87;;
11522;SDS011;70090;43.208;27.904;2023-05-21T02:48:26;10.03;;;4.70;;
11522;SDS011;70090;43.208;27.904;2023-05-21T02:50:53;8.87;;;5.13;;
11522;SDS011;70090;43.208;27.904;2023-05-21T02:53:20;7.57;;;4.67;;
11522;SDS011;70090;43.208;27.904;2023-05-21T02:55:47;6.67;;;4.73;;
11522;SDS011;70090;43.208;27.904;2023-05-21T02:58:14;7.13;;;4.33;;
11522;SDS011;70090;43.208;27.904;2023-05-21T03:00:40;8.33;;;4.53;;
11522;SDS011;70090;43.208;27.904;2023-05-21T03:03:07;6.63;;;4.50;;
11522;SDS011;70090;43.208;27.904;2023-05-21T03:05:37;9.33;;;4.37;;
11522;SDS011;70090;43.208;27.904;2023-05-21T03:08:03;7.03;;;4.33;;
11522;SDS011;70090;43.208;27.904;2023-05-21T03:10:30;6.83;;;4.67;;
11522;SDS011;70090;43.208;27.904;2023-05-21T03:12:57;7.50;;;4.40;;
11522;SDS011;70090;43.208;27.904;2023-05-21T03:15:24;9.27;;;4.50;;
11522;SDS011;70090;43.208;27.904;2023-05-21T03:17:51;7.03;;;4.60;;
11522;SDS011;70090;43.208;27.904;2023-05-21T03:20:19;7.40;;;4.97;;
11522;SDS011;70090;43.208;27.904;2023-05-21T03:22:47;6.97;;;4.80;;
11522;SDS011;70090;43.208;27.904;2023-05-21T03:25:14;6.53;;;4.47;;
11522;SDS011;70090;43.208;27.904;2023-05-21T03:27:41;8.80;;;4.80;;
11522;SDS011;70090;43.208;27.904;2023-05-21T03:30:08;8.03;;;4.33;;
11522;SDS011;70090;43.208;27.904;2023-05-21T03:32:35;8.00;;;4.67;;
11522;SDS011;70090;43.208;27.904;2023-05-21T03:35:03;7.00;;;4.60;;
11522;SDS011;70090;43.208;27.904;2023-05-21T03:37:30;6.83;;;4.50;;
11522;SDS011;70090;43.208;27.904;2023-05-21T03:39:58;6.53;;;4.60;;
11522;SDS011;70090;43.208;27.904;2023-05-21T03:42:25;5.80;;;4.67;;
11522;SDS011;70090;43.208;27.904;2023-05-21T03:44:52;9.33;;;4.80;;
11522;SDS011;70090;43.208;27.904;2023-05-21T03:47:19;7.30;;;4.70;;
11522;SDS011;70090;43.208;27.904;2023-05-21T03:49:45;8.93;;;4.40;;
11522;SDS011;70090;43.208;27.904;2023-05-21T03:52:12;6.67;;;4.43;;
11522;SDS011;70090;43.208;27.904;2023-05-21T03:54:39;9.13;;;5.00;;
11522;SDS011;70090;43.208;27.904;2023-05-21T03:57:07;7.87;;;4.53;;
11522;SDS011;70090;43.208;27.904;2023-05-21T03:59:34;7.73;;;4.77;;
11522;SDS011;70090;43.208;27.904;2023-05-21T04:02:01;8.57;;;4.40;;
11522;SDS011;70090;43.208;27.904;2023-05-21T04:04:28;5.43;;;4.63;;
11522;SDS011;70090;43.208;27.904;2023-05-21T04:06:55;6.63;;;4.60;;
11522;SDS011;70090;43.208;27.904;2023-05-21T04:09:22;10.17;;;5.33;;
11522;SDS011;70090;43.208;27.904;2023-05-21T04:11:48;7.67;;;4.47;;
11522;SDS011;70090;43.208;27.904;2023-05-21T04:14:17;6.10;;;4.60;;
11522;SDS011;70090;43.208;27.904;2023-05-21T04:16:43;9.23;;;4.33;;
11522;SDS011;70090;43.208;27.904;2023-05-21T04:19:13;9.53;;;5.00;;
11522;SDS011;70090;43.208;27.904;2023-05-21T04:21:40;7.83;;;4.70;;
11522;SDS011;70090;43.208;27.904;2023-05-21T04:24:09;11.23;;;4.70;;
11522;SDS011;70090;43.208;27.904;2023-05-21T04:26:36;6.87;;;4.50;;
11522;SDS011;70090;43.208;27.904;2023-05-21T04:29:06;10.40;;;4.70;;
11522;SDS011;70090;43.208;27.904;2023-05-21T04:31:35;7.50;;;4.53;;
11522;SDS011;70090;43.208;27.904;2023-05-21T04:34:02;7.30;;;4.53;;
11522;SDS011;70090;43.208;27.904;2023-05-21T04:36:29;8.77;;;4.70;;
11522;SDS011;70090;43.208;27.904;2023-05-21T04:38:57;11.97;;;4.90;;
11522;SDS011;70090;43.208;27.904;2023-05-21T04:41:24;6.70;;;4.50;;
11522;SDS011;70090;43.208;27.904;2023-05-21T04:43:52;8.23;;;4.53;;
11522;SDS011;70090;43.208;27.904;2023-05-21T04:46:19;5.87;;;4.50;;
11522;SDS011;70090;43.208;27.904;2023-05-21T04:48:51;8.00;;;4.63;;
11522;SDS011;70090;43.208;27.904;2023-05-21T04:51:19;6.67;;;4.77;;
11522;SDS011;70090;43.208;27.904;2023-05-21T04:53:48;7.00;;;4.43;;
11522;SDS011;70090;43.208;27.904;2023-05-21T04:56:15;8.60;;;4.97;;
11522;SDS011;70090;43.208;27.904;2023-05-21T04:58:43;9.60;;;4.77;;
11522;SDS011;70090;43.208;27.904;2023-05-21T05:01:10;8.37;;;4.93;;
11522;SDS011;70090;43.208;27.904;2023-05-21T05:03:37;6.70;;;4.57;;
11522;SDS011;70090;43.208;27.904;2023-05-21T05:06:05;5.30;;;3.97;;
11522;SDS011;70090;43.208;27.904;2023-05-21T05:08:32;7.67;;;4.67;;
11522;SDS011;70090;43.208;27.904;2023-05-21T05:10:59;8.40;;;4.60;;
11522;SDS011;70090;43.208;27.904;2023-05-21T05:13:26;7.63;;;4.67;;
11522;SDS011;70090;43.208;27.904;2023-05-21T05:15:53;7.57;;;4.50;;
11522;SDS011;70090;43.208;27.904;2023-05-21T05:18:21;6.80;;;4.53;;
11522;SDS011;70090;43.208;27.904;2023-05-21T05:20:48;9.23;;;4.97;;
11522;SDS011;70090;43.208;27.904;2023-05-21T05:23:16;8.43;;;4.80;;
11522;SDS011;70090;43.208;27.904;2023-05-21T05:25:43;8.23;;;4.73;;
11522;SDS011;70090;43.208;27.904;2023-05-21T05:28:10;9.37;;;4.57;;
11522;SDS011;70090;43.208;27.904;2023-05-21T05:30:37;9.10;;;4.47;;
11522;SDS011;70090;43.208;27.904;2023-05-21T05:33:04;6.83;;;4.60;;
11522;SDS011;70090;43.208;27.904;2023-05-21T05:35:30;8.00;;;4.80;;
11522;SDS011;70090;43.208;27.904;2023-05-21T05:37:57;6.37;;;4.53;;
11522;SDS011;70090;43.208;27.904;2023-05-21T05:40:25;8.63;;;4.73;;
11522;SDS011;70090;43.208;27.904;2023-05-21T05:42:52;9.37;;;4.50;;
11522;SDS011;70090;43.208;27.904;2023-05-21T05:45:19;8.60;;;4.73;;
11522;SDS011;70090;43.208;27.904;2023-05-21T05:47:46;9.60;;;5.00;;
11522;SDS011;70090;43.208;27.904;2023-05-21T05:50:13;8.20;;;4.80;;
11522;SDS011;70090;43.208;27.904;2023-05-21T05:52:40;8.57;;;4.60;;
11522;SDS011;70090;43.208;27.904;2023-05-21T05:55:07;9.37;;;4.80;;
11522;SDS011;70090;43.208;27.904;2023-05-21T05:57:37;7.90;;;4.93;;
11522;SDS011;70090;43.208;27.904;2023-05-21T06:00:05;10.70;;;5.73;;
11522;SDS011;70090;43.208;27.904;2023-05-21T06:02:34;6.60;;;4.63;;
11522;SDS011;70090;43.208;27.904;2023-05-21T06:05:01;8.00;;;4.73;;
11522;SDS011;70090;43.208;27.904;2023-05-21T06:07:28;8.10;;;5.07;;
11522;SDS011;70090;43.208;27.904;2023-05-21T06:09:55;8.63;;;5.17;;
11522;SDS011;70090;43.208;27.904;2023-05-21T06:12:22;9.27;;;5.10;;
11522;SDS011;70090;43.208;27.904;2023-05-21T06:14:50;6.47;;;4.80;;
11522;SDS011;70090;43.208;27.904;2023-05-21T06:17:17;8.40;;;5.03;;
11522;SDS011;70090;43.208;27.904;2023-05-21T06:19:44;9.20;;;4.60;;
11522;SDS011;70090;43.208;27.904;2023-05-21T06:22:10;6.10;;;4.60;;
11522;SDS011;70090;43.208;27.904;2023-05-21T06:24:37;11.87;;;5.23;;
11522;SDS011;70090;43.208;27.904;2023-05-21T06:27:04;7.67;;;4.80;;
11522;SDS011;70090;43.208;27.904;2023-05-21T06:29:31;7.83;;;4.97;;
11522;SDS011;70090;43.208;27.904;2023-05-21T06:31:59;13.83;;;5.07;;
11522;SDS011;70090;43.208;27.904;2023-05-21T06:34:26;9.73;;;4.80;;
11522;SDS011;70090;43.208;27.904;2023-05-21T06:36:53;6.23;;;5.27;;
11522;SDS011;70090;43.208;27.904;2023-05-21T06:39:20;10.67;;;6.43;;
11522;SDS011;70090;43.208;27.904;2023-05-21T06:41:48;9.10;;;6.43;;
11522;SDS011;70090;43.208;27.904;2023-05-21T06:44:15;7.53;;;5.23;;
11522;SDS011;70090;43.208;27.904;2023-05-21T06:46:42;10.97;;;5.33;;
11522;SDS011;70090;43.208;27.904;2023-05-21T06:49:10;7.93;;;4.93;;
11522;SDS011;70090;43.208;27.904;2023-05-21T06:51:39;7.30;;;5.07;;
11522;SDS011;70090;43.208;27.904;2023-05-21T06:54:05;7.43;;;4.77;;
11522;SDS011;70090;43.208;27.904;2023-05-21T06:56:32;8.63;;;5.00;;
11522;SDS011;70090;43.208;27.904;2023-05-21T06:58:59;11.33;;;5.13;;
11522;SDS011;70090;43.208;27.904;2023-05-21T07:01:26;7.87;;;5.90;;
11522;SDS011;70090;43.208;27.904;2023-05-21T07:03:53;7.67;;;6.50;;
11522;SDS011;70090;43.208;27.904;2023-05-21T07:06:21;8.13;;;5.37;;
11522;SDS011;70090;43.208;27.904;2023-05-21T07:08:48;10.17;;;5.30;;
11522;SDS011;70090;43.208;27.904;2023-05-21T07:11:15;6.60;;;5.03;;
11522;SDS011;70090;43.208;27.904;2023-05-21T07:13:41;7.43;;;4.73;;
11522;SDS011;70090;43.208;27.904;2023-05-21T07:16:09;7.43;;;4.97;;
11522;SDS011;70090;43.208;27.904;2023-05-21T07:18:35;9.50;;;4.97;;
11522;SDS011;70090;43.208;27.904;2023-05-21T07:21:02;9.40;;;5.17;;
11522;SDS011;70090;43.208;27.904;2023-05-21T07:23:31;7.00;;;4.90;;
11522;SDS011;70090;43.208;27.904;2023-05-21T07:25:58;7.90;;;4.67;;
11522;SDS011;70090;43.208;27.904;2023-05-21T07:28:25;8.33;;;4.97;;
11522;SDS011;70090;43.208;27.904;2023-05-21T07:30:52;7.93;;;4.93;;
11522;SDS011;70090;43.208;27.904;2023-05-21T07:33:18;8.87;;;5.10;;
11522;SDS011;70090;43.208;27.904;2023-05-21T07:35:46;8.23;;;5.07;;
11522;SDS011;70090;43.208;27.904;2023-05-21T07:38:13;7.87;;;5.20;;
11522;SDS011;70090;43.208;27.904;2023-05-21T07:40:43;8.00;;;5.27;;
11522;SDS011;70090;43.208;27.904;2023-05-21T07:43:10;7.50;;;5.30;;
11522;SDS011;70090;43.208;27.904;2023-05-21T07:45:37;9.53;;;4.97;;
11522;SDS011;70090;43.208;27.904;2023-05-21T07:48:04;6.83;;;5.00;;
11522;SDS011;70090;43.208;27.904;2023-05-21T07:50:31;12.97;;;5.47;;
11522;SDS011;70090;43.208;27.904;2023-05-21T07:52:58;9.93;;;5.20;;
11522;SDS011;70090;43.208;27.904;2023-05-21T07:55:25;7.43;;;5.20;;
11522;SDS011;70090;43.208;27.904;2023-05-21T07:57:53;7.00;;;5.30;;
11522;SDS011;70090;43.208;27.904;2023-05-21T08:00:21;10.43;;;4.90;;
11522;SDS011;70090;43.208;27.904;2023-05-21T08:02:49;10.73;;;5.43;;
11522;SDS011;70090;43.208;27.904;2023-05-21T08:05:16;5.80;;;5.13;;
11522;SDS011;70090;43.208;27.904;2023-05-21T08:07:43;7.47;;;5.30;;
11522;SDS011;70090;43.208;27.904;2023-05-21T08:10:10;9.53;;;5.53;;
11522;SDS011;70090;43.208;27.904;2023-05-21T08:12:37;14.10;;;5.87;;
11522;SDS011;70090;43.208;27.904;2023-05-21T08:15:05;8.03;;;5.30;;
11522;SDS011;70090;43.208;27.904;2023-05-21T08:17:33;10.40;;;5.57;;
11522;SDS011;70090;43.208;27.904;2023-05-21T08:20:00;10.07;;;5.00;;
11522;SDS011;70090;43.208;27.904;2023-05-21T08:22:27;6.47;;;5.13;;
11522;SDS011;70090;43.208;27.904;2023-05-21T08:24:54;8.67;;;5.33;;
11522;SDS011;70090;43.208;27.904;2023-05-21T08:27:21;8.97;;;5.40;;
11522;SDS011;70090;43.208;27.904;2023-05-21T08:29:48;9.43;;;5.43;;
11522;SDS011;70090;43.208;27.904;2023-05-21T08:32:16;9.83;;;5.27;;
11522;SDS011;70090;43.208;27.904;2023-05-21T08:34:43;7.20;;;4.70;;
11522;SDS011;70090;43.208;27.904;2023-05-21T08:37:09;8.97;;;4.80;;
11522;SDS011;70090;43.208;27.904;2023-05-21T08:39:36;7.80;;;4.63;;
11522;SDS011;70090;43.208;27.904;2023-05-21T08:42:05;5.60;;;5.10;;
11522;SDS011;70090;43.208;27.904;2023-05-21T08:44:40;8.33;;;4.80;;
11522;SDS011;70090;43.208;27.904;2023-05-21T08:47:13;6.87;;;5.27;;
11522;SDS011;70090;43.208;27.904;2023-05-21T08:49:44;8.20;;;5.30;;
11522;SDS011;70090;43.208;27.904;2023-05-21T08:52:13;7.37;;;5.30;;
11522;SDS011;70090;43.208;27.904;2023-05-21T08:54:40;7.70;;;5.90;;
11522;SDS011;70090;43.208;27.904;2023-05-21T08:57:09;6.70;;;5.10;;
11522;SDS011;70090;43.208;27.904;2023-05-21T08:59:37;8.37;;;5.60;;
11522;SDS011;70090;43.208;27.904;2023-05-21T09:02:08;8.10;;;5.60;;
11522;SDS011;70090;43.208;27.904;2023-05-21T09:04:39;13.07;;;5.70;;
11522;SDS011;70090;43.208;27.904;2023-05-21T09:07:06;7.17;;;4.97;;
11522;SDS011;70090;43.208;27.904;2023-05-21T09:09:37;8.53;;;5.30;;
11522;SDS011;70090;43.208;27.904;2023-05-21T09:12:09;6.53;;;4.80;;
11522;SDS011;70090;43.208;27.904;2023-05-21T09:14:36;7.03;;;5.50;;
11522;SDS011;70090;43.208;27.904;2023-05-21T09:17:04;10.70;;;5.50;;
11522;SDS011;70090;43.208;27.904;2023-05-21T09:19:31;8.57;;;5.00;;
11522;SDS011;70090;43.208;27.904;2023-05-21T09:22:01;8.90;;;5.33;;
11522;SDS011;70090;43.208;27.904;2023-05-21T09:24:29;7.23;;;5.00;;
11522;SDS011;70090;43.208;27.904;2023-05-21T09:26:56;6.30;;;4.40;;
11522;SDS011;70090;43.208;27.904;2023-05-21T09:29:23;7.33;;;4.70;;
11522;SDS011;70090;43.208;27.904;2023-05-21T09:31:52;7.27;;;4.80;;
11522;SDS011;70090;43.208;27.904;2023-05-21T09:34:18;8.47;;;5.10;;
11522;SDS011;70090;43.208;27.904;2023-05-21T09:36:47;9.33;;;5.23;;
11522;SDS011;70090;43.208;27.904;2023-05-21T09:39:27;6.83;;;4.80;;
11522;SDS011;70090;43.208;27.904;2023-05-21T09:41:55;9.07;;;4.47;;
11522;SDS011;70090;43.208;27.904;2023-05-21T09:44:22;7.90;;;5.30;;
11522;SDS011;70090;43.208;27.904;2023-05-21T09:46:49;6.97;;;4.60;;
11522;SDS011;70090;43.208;27.904;2023-05-21T09:49:21;8.07;;;5.00;;
11522;SDS011;70090;43.208;27.904;2023-05-21T09:51:53;9.17;;;4.80;;
11522;SDS011;70090;43.208;27.904;2023-05-21T09:54:21;7.13;;;4.80;;
11522;SDS011;70090;43.208;27.904;2023-05-21T09:56:49;6.83;;;4.70;;
11522;SDS011;70090;43.208;27.904;2023-05-21T09:59:16;6.40;;;5.07;;
11522;SDS011;70090;43.208;27.904;2023-05-21T10:01:43;10.87;;;5.30;;
11522;SDS011;70090;43.208;27.904;2023-05-21T10:04:11;6.03;;;4.87;;
11522;SDS011;70090;43.208;27.904;2023-05-21T10:06:40;7.73;;;4.93;;
11522;SDS011;70090;43.208;27.904;2023-05-21T10:09:08;5.37;;;4.50;;
11522;SDS011;70090;43.208;27.904;2023-05-21T10:11:36;6.77;;;4.80;;
11522;SDS011;70090;43.208;27.904;2023-05-21T10:14:06;12.17;;;5.43;;
11522;SDS011;70090;43.208;27.904;2023-05-21T10:16:39;10.93;;;5.20;;
11522;SDS011;70090;43.208;27.904;2023-05-21T10:19:07;7.57;;;5.10;;
11522;SDS011;70090;43.208;27.904;2023-05-21T10:21:35;6.47;;;4.87;;
11522;SDS011;70090;43.208;27.904;2023-05-21T10:24:03;9.70;;;4.90;;
11522;SDS011;70090;43.208;27.904;2023-05-21T10:26:33;6.80;;;4.90;;
11522;SDS011;70090;43.208;27.904;2023-05-21T10:29:01;6.50;;;4.40;;
11522;SDS011;70090;43.208;27.904;2023-05-21T10:31:30;6.37;;;4.60;;
11522;SDS011;70090;43.208;27.904;2023-05-21T10:33:57;9.50;;;5.03;;
11522;SDS011;70090;43.208;27.904;2023-05-21T10:36:28;7.83;;;5.10;;
11522;SDS011;70090;43.208;27.904;2023-05-21T10:38:56;7.23;;;4.80;;
11522;SDS011;70090;43.208;27.904;2023-05-21T10:41:25;6.80;;;4.77;;
11522;SDS011;70090;43.208;27.904;2023-05-21T10:44:00;5.93;;;4.93;;
11522;SDS011;70090;43.208;27.904;2023-05-21T10:46:46;6.77;;;4.93;;
11522;SDS011;70090;43.208;27.904;2023-05-21T10:49:34;9.53;;;5.13;;
11522;SDS011;70090;43.208;27.904;2023-05-21T10:52:13;10.00;;;5.60;;
11522;SDS011;70090;43.208;27.904;2023-05-21T10:54:59;7.20;;;5.00;;
11522;SDS011;70090;43.208;27.904;2023-05-21T10:57:37;9.93;;;5.23;;
11522;SDS011;70090;43.208;27.904;2023-05-21T11:00:15;7.80;;;4.50;;
11522;SDS011;70090;43.208;27.904;2023-05-21T11:02:45;8.97;;;4.93;;
11522;SDS011;70090;43.208;27.904;2023-05-21T11:05:15;7.30;;;4.73;;
11522;SDS011;70090;43.208;27.904;2023-05-21T11:07:49;7.77;;;5.17;;
11522;SDS011;70090;43.208;27.904;2023-05-21T11:13:03;8.20;;;5.13;;
11522;SDS011;70090;43.208;27.904;2023-05-21T11:21:30;8.43;;;4.57;;
11522;SDS011;70090;43.208;27.904;2023-05-21T11:24:03;5.67;;;4.67;;
11522;SDS011;70090;43.208;27.904;2023-05-21T11:29:38;5.57;;;4.70;;
11522;SDS011;70090;43.208;27.904;2023-05-21T11:32:09;8.57;;;4.97;;
11522;SDS011;70090;43.208;27.904;2023-05-21T11:34:39;6.87;;;4.93;;
11522;SDS011;70090;43.208;27.904;2023-05-21T11:43:00;7.27;;;4.83;;
11522;SDS011;70090;43.208;27.904;2023-05-21T11:45:27;7.53;;;4.97;;
11522;SDS011;70090;43.208;27.904;2023-05-21T11:47:56;6.07;;;4.87;;
11522;SDS011;70090;43.208;27.904;2023-05-21T11:50:24;6.40;;;4.80;;
11522;SDS011;70090;43.208;27.904;2023-05-21T11:52:51;5.67;;;4.50;;
11522;SDS011;70090;43.208;27.904;2023-05-21T11:55:21;5.70;;;4.47;;
11522;SDS011;70090;43.208;27.904;2023-05-21T11:57:51;5.30;;;4.80;;
11522;SDS011;70090;43.208;27.904;2023-05-21T12:00:19;6.90;;;4.23;;
11522;SDS011;70090;43.208;27.904;2023-05-21T12:02:46;9.10;;;4.87;;
11522;SDS011;70090;43.208;27.904;2023-05-21T12:05:15;6.53;;;4.60;;
11522;SDS011;70090;43.208;27.904;2023-05-21T12:07:46;5.83;;;4.90;;
11522;SDS011;70090;43.208;27.904;2023-05-21T12:10:21;7.63;;;5.03;;
11522;SDS011;70090;43.208;27.904;2023-05-21T12:12:48;9.57;;;5.83;;
11522;SDS011;70090;43.208;27.904;2023-05-21T12:15:16;7.73;;;5.37;;
11522;SDS011;70090;43.208;27.904;2023-05-21T12:17:43;6.50;;;4.90;;
11522;SDS011;70090;43.208;27.904;2023-05-21T12:20:11;7.63;;;5.20;;
11522;SDS011;70090;43.208;27.904;2023-05-21T12:22:40;7.73;;;5.37;;
11522;SDS011;70090;43.208;27.904;2023-05-21T12:25:09;9.50;;;5.77;;
11522;SDS011;70090;43.208;27.904;2023-05-21T12:27:37;8.37;;;6.00;;
11522;SDS011;70090;43.208;27.904;2023-05-21T12:30:06;9.97;;;5.57;;
11522;SDS011;70090;43.208;27.904;2023-05-21T12:32:35;8.13;;;5.73;;
11522;SDS011;70090;43.208;27.904;2023-05-21T12:35:08;9.53;;;6.13;;
11522;SDS011;70090;43.208;27.904;2023-05-21T12:37:35;7.93;;;6.20;;
11522;SDS011;70090;43.208;27.904;2023-05-21T12:40:02;10.50;;;6.23;;
11522;SDS011;70090;43.208;27.904;2023-05-21T12:42:33;8.80;;;6.00;;
11522;SDS011;70090;43.208;27.904;2023-05-21T12:45:00;8.87;;;6.40;;
11522;SDS011;70090;43.208;27.904;2023-05-21T12:47:33;8.23;;;6.10;;
11522;SDS011;70090;43.208;27.904;2023-05-21T12:50:00;7.40;;;5.37;;
11522;SDS011;70090;43.208;27.904;2023-05-21T12:52:29;6.37;;;4.77;;
11522;SDS011;70090;43.208;27.904;2023-05-21T12:54:56;10.40;;;5.43;;
11522;SDS011;70090;43.208;27.904;2023-05-21T12:57:24;7.63;;;5.27;;
11522;SDS011;70090;43.208;27.904;2023-05-21T12:59:54;7.13;;;4.60;;
11522;SDS011;70090;43.208;27.904;2023-05-21T13:02:22;6.63;;;5.47;;
11522;SDS011;70090;43.208;27.904;2023-05-21T13:04:53;6.50;;;4.67;;
11522;SDS011;70090;43.208;27.904;2023-05-21T13:07:21;5.77;;;4.23;;
11522;SDS011;70090;43.208;27.904;2023-05-21T13:09:49;8.10;;;4.80;;
11522;SDS011;70090;43.208;27.904;2023-05-21T13:12:17;6.20;;;4.20;;
11522;SDS011;70090;43.208;27.904;2023-05-21T13:14:44;7.67;;;4.30;;
11522;SDS011;70090;43.208;27.904;2023-05-21T13:17:12;6.57;;;4.37;;
11522;SDS011;70090;43.208;27.904;2023-05-21T13:19:39;6.17;;;4.90;;
11522;SDS011;70090;43.208;27.904;2023-05-21T13:22:06;5.53;;;4.30;;
11522;SDS011;70090;43.208;27.904;2023-05-21T13:24:34;6.17;;;3.80;;
11522;SDS011;70090;43.208;27.904;2023-05-21T13:27:01;6.27;;;4.10;;
11522;SDS011;70090;43.208;27.904;2023-05-21T13:29:45;6.77;;;4.03;;
11522;SDS011;70090;43.208;27.904;2023-05-21T13:32:13;5.83;;;3.87;;
11522;SDS011;70090;43.208;27.904;2023-05-21T13:34:40;6.50;;;4.00;;
11522;SDS011;70090;43.208;27.904;2023-05-21T13:37:07;4.93;;;3.80;;
11522;SDS011;70090;43.208;27.904;2023-05-21T13:39:34;9.30;;;4.20;;
11522;SDS011;70090;43.208;27.904;2023-05-21T13:42:01;6.67;;;3.93;;
11522;SDS011;70090;43.208;27.904;2023-05-21T13:44:29;6.20;;;4.30;;
11522;SDS011;70090;43.208;27.904;2023-05-21T13:47:00;8.17;;;3.83;;
11522;SDS011;70090;43.208;27.904;2023-05-21T13:49:28;7.83;;;3.77;;
11522;SDS011;70090;43.208;27.904;2023-05-21T13:51:55;7.30;;;4.10;;
11522;SDS011;70090;43.208;27.904;2023-05-21T13:54:22;7.13;;;3.90;;
11522;SDS011;70090;43.208;27.904;2023-05-21T13:56:49;7.07;;;4.60;;
11522;SDS011;70090;43.208;27.904;2023-05-21T13:59:15;7.30;;;4.30;;
11522;SDS011;70090;43.208;27.904;2023-05-21T14:01:42;8.73;;;4.70;;
11522;SDS011;70090;43.208;27.904;2023-05-21T14:04:09;6.73;;;4.30;;
11522;SDS011;70090;43.208;27.904;2023-05-21T14:06:38;7.37;;;3.60;;
11522;SDS011;70090;43.208;27.904;2023-05-21T14:09:05;6.63;;;3.90;;
11522;SDS011;70090;43.208;27.904;2023-05-21T14:11:33;5.30;;;3.43;;
11522;SDS011;70090;43.208;27.904;2023-05-21T14:14:00;8.33;;;4.00;;
11522;SDS011;70090;43.208;27.904;2023-05-21T14:16:27;8.43;;;3.67;;
11522;SDS011;70090;43.208;27.904;2023-05-21T14:18:54;5.10;;;3.47;;
11522;SDS011;70090;43.208;27.904;2023-05-21T14:21:21;5.23;;;3.47;;
11522;SDS011;70090;43.208;27.904;2023-05-21T14:23:50;6.20;;;3.67;;
11522;SDS011;70090;43.208;27.904;2023-05-21T14:26:17;9.87;;;3.77;;
11522;SDS011;70090;43.208;27.904;2023-05-21T14:28:44;7.03;;;3.43;;
11522;SDS011;70090;43.208;27.904;2023-05-21T14:31:11;6.00;;;3.70;;
11522;SDS011;70090;43.208;27.904;2023-05-21T14:33:38;8.07;;;4.03;;
11522;SDS011;70090;43.208;27.904;2023-05-21T14:36:05;6.00;;;3.73;;
11522;SDS011;70090;43.208;27.904;2023-05-21T14:38:32;6.43;;;4.10;;
11522;SDS011;70090;43.208;27.904;2023-05-21T14:41:00;8.17;;;3.60;;
11522;SDS011;70090;43.208;27.904;2023-05-21T14:43:27;8.77;;;3.90;;
11522;SDS011;70090;43.208;27.904;2023-05-21T14:45:54;7.40;;;3.73;;
11522;SDS011;70090;43.208;27.904;2023-05-21T14:48:20;6.97;;;3.80;;
11522;SDS011;70090;43.208;27.904;2023-05-21T14:50:48;7.47;;;4.10;;
11522;SDS011;70090;43.208;27.904;2023-05-21T14:53:15;7.97;;;3.77;;
11522;SDS011;70090;43.208;27.904;2023-05-21T14:55:43;5.20;;;3.93;;